Time;durP1;ratioP1;P1;durP2;ratioP2;P2;SDS_P1;SDS_P2;PMS_P1;PMS_P2;Temp;Humidity;BMP_temperature;BMP_pressure;BME280_temperature;BME280_humidity;BME280_pressure;Samples;Min_cycle;Max_cycle;Signal;HPM_P1;HPM_P2
2023/11/13 00:02:43;;;;;;;;;;;;;;;7.62;65.65;97469.25;5052493;28;19928;-71
2023/11/13 00:05:32;;;;;;;;;;;;;;;7.65;65.91;97467.81;5064056;28;20035;-71
2023/11/13 00:08:20;;;;;;;;;;;;;;;7.63;65.80;97478.94;5041042;28;19920;-71
2023/11/13 00:11:09;;;;;;;;;;;;;;;7.66;65.53;97491.84;5072419;28;19920;-71
2023/11/13 00:13:57;;;;;;;;;;;;;;;7.75;64.87;97487.31;5066703;28;19920;-72
2023/11/13 00:16:46;;;;;;;;;;;;;;;7.61;65.40;97494.66;5057548;28;20393;-72
2023/11/13 00:19:37;;;;;;;;;;;;;;;7.73;65.28;97502.28;5057003;28;20610;-71
2023/11/13 00:22:25;;;;;;;;;;;;;;;7.80;65.14;97503.44;5081034;28;19995;-72
2023/11/13 00:25:13;;;;;;;;;;;;;;;7.66;65.52;97488.34;5079674;28;20012;-71
2023/11/13 00:28:03;;;;;;;;;;;;;;;7.58;66.37;97484.47;5082356;28;20392;-72
2023/11/13 00:30:51;;;;;;;;;;;;;;;7.68;65.99;97470.72;5082307;28;19920;-72
2023/11/13 00:33:42;;;;;;;;;;;;;;;7.59;65.93;97464.44;5095433;28;19920;-72
2023/11/13 00:36:30;;;;;;;;;;;;;;;7.63;65.80;97462.72;5071713;28;19936;-73
2023/11/13 00:39:21;;;;;;;;;;;;;;;7.60;65.83;97468.72;5078357;28;19920;-72
2023/11/13 00:42:11;;;;;;;;;;;;;;;7.73;65.86;97454.41;5073872;28;20087;-72
2023/11/13 00:45:00;;;;;;;;;;;;;;;7.53;65.53;97452.13;5089813;28;19920;-72
2023/11/13 00:47:49;;;;;;;;;;;;;;;7.58;65.96;97469.03;5088740;28;19927;-73
2023/11/13 00:50:37;;;;;;;;;;;;;;;7.35;66.80;97481.66;5091140;28;20278;-72
2023/11/13 00:53:25;;;;;;;;;;;;;;;7.54;66.26;97476.13;5085835;28;19929;-72
2023/11/13 00:56:13;;;;;;;;;;;;;;;7.51;66.30;97468.66;5074939;28;19927;-72
2023/11/13 00:59:01;;;;;;;;;;;;;;;7.62;65.82;97469.25;5080656;28;20487;-72
2023/11/13 01:01:50;;;;;;;;;;;;;;;7.75;65.69;97479.22;5088191;28;19932;-72
2023/11/13 01:04:39;;;;;;;;;;;;;;;7.69;65.75;97480.44;5069681;28;20074;-72
2023/11/13 01:07:27;;;;;;;;;;;;;;;7.78;65.29;97486.75;5089785;28;19920;-71
2023/11/13 01:10:15;;;;;;;;;;;;;;;7.60;65.05;97471.44;5090827;28;19978;-72
2023/11/13 01:13:03;;;;;;;;;;;;;;;7.59;65.33;97473.34;5086465;28;19932;-72
2023/11/13 01:15:53;;;;;;;;;;;;;;;7.53;65.66;97461.03;5085968;28;19927;-72
2023/11/13 01:18:42;;;;;;;;;;;;;;;7.60;65.41;97455.22;5088944;28;19920;-72
2023/11/13 01:21:31;;;;;;;;;;;;;;;7.60;65.65;97449.78;5100814;27;19920;-72
2023/11/13 01:24:20;;;;;;;;;;;;;;;7.45;65.79;97447.41;5101827;27;19919;-74
2023/11/13 01:27:08;;;;;;;;;;;;;;;7.32;66.66;97436.31;5103009;27;19920;-74
2023/11/13 01:29:56;;;;;;;;;;;;;;;7.32;65.80;97447.13;5096874;27;20382;-71
2023/11/13 01:32:45;;;;;;;;;;;;;;;7.43;65.91;97444.22;5085336;28;20277;-72
2023/11/13 01:35:34;;;;;;;;;;;;;;;7.28;66.32;97438.03;5075264;27;19943;-76
2023/11/13 01:38:22;;;;;;;;;;;;;;;7.16;66.91;97432.31;5103499;27;19966;-72
2023/11/13 01:41:14;;;;;;;;;;;;;;;7.14;67.12;97437.25;5116068;27;19964;-72
2023/11/13 01:44:02;;;;;;;;;;;;;;;7.26;66.80;97423.22;5103049;27;19920;-72
2023/11/13 01:46:50;;;;;;;;;;;;;;;7.30;66.46;97403.41;5118020;27;20354;-73
2023/11/13 01:49:38;;;;;;;;;;;;;;;7.09;67.25;97407.63;5089521;28;19920;-72
2023/11/13 01:52:27;;;;;;;;;;;;;;;7.17;66.79;97395.31;5094126;27;20377;-72
2023/11/13 01:55:16;;;;;;;;;;;;;;;7.22;67.23;97396.00;5105836;27;19989;-72
2023/11/13 01:58:04;;;;;;;;;;;;;;;7.27;66.36;97397.78;5124885;27;20016;-72
2023/11/13 02:00:52;;;;;;;;;;;;;;;6.96;67.47;97405.72;5107877;27;20057;-72
2023/11/13 02:03:41;;;;;;;;;;;;;;;7.15;67.14;97406.41;5092942;27;19920;-72
2023/11/13 02:06:29;;;;;;;;;;;;;;;7.14;66.83;97409.41;5091492;27;19920;-72
2023/11/13 02:09:20;;;;;;;;;;;;;;;7.24;66.80;97401.88;5098607;27;20085;-71
2023/11/13 02:12:09;;;;;;;;;;;;;;;7.27;66.71;97379.69;5092447;27;19927;-73
2023/11/13 02:14:56;;;;;;;;;;;;;;;7.20;66.81;97375.81;5115767;27;19930;-72
2023/11/13 02:17:57;;;;;;;;;;;;;;;7.24;67.08;97380.28;5084011;27;19927;-71
2023/11/13 02:20:46;;;;;;;;;;;;;;;7.33;66.53;97391.19;5099452;28;19944;-72
2023/11/13 02:23:35;;;;;;;;;;;;;;;7.37;66.54;97381.38;5083363;28;19919;-72
2023/11/13 02:26:24;;;;;;;;;;;;;;;7.38;66.72;97388.38;5083956;28;20004;-73
2023/11/13 02:29:12;;;;;;;;;;;;;;;7.42;66.59;97392.06;5102055;27;19920;-71
2023/11/13 02:32:01;;;;;;;;;;;;;;;7.45;66.39;97404.16;5103661;27;20003;-72
2023/11/13 02:34:49;;;;;;;;;;;;;;;7.53;66.36;97403.47;5113830;27;19923;-72
2023/11/13 02:37:37;;;;;;;;;;;;;;;7.38;66.38;97398.38;5089857;28;19964;-72
2023/11/13 02:40:26;;;;;;;;;;;;;;;7.42;66.79;97397.47;5115609;27;19927;-72
2023/11/13 02:43:14;;;;;;;;;;;;;;;7.24;67.24;97391.09;5084512;27;20049;-73
2023/11/13 02:46:03;;;;;;;;;;;;;;;7.48;67.57;97382.75;5111714;27;19927;-72
2023/11/13 02:48:51;;;;;;;;;;;;;;;7.48;67.95;97377.34;5091742;27;19928;-72
2023/11/13 02:51:40;;;;;;;;;;;;;;;7.36;68.40;97371.66;5101760;27;20249;-74
2023/11/13 02:54:28;;;;;;;;;;;;;;;6.98;70.39;97374.63;5081912;28;19923;-72
2023/11/13 02:57:18;;;;;;;;;;;;;;;7.26;69.58;97353.78;5107941;27;19920;-72
2023/11/13 03:00:08;;;;;;;;;;;;;;;7.19;69.66;97356.09;5093039;27;20014;-72
2023/11/13 03:02:56;;;;;;;;;;;;;;;7.20;69.94;97376.59;5102928;27;20389;-72
2023/11/13 03:05:44;;;;;;;;;;;;;;;7.26;69.77;97364.59;5112013;27;19932;-72
2023/11/13 03:08:32;;;;;;;;;;;;;;;7.17;70.09;97381.78;5100062;27;19973;-72
2023/11/13 03:11:20;;;;;;;;;;;;;;;7.10;70.29;97387.63;5090270;28;19919;-72
2023/11/13 03:14:09;;;;;;;;;;;;;;;7.06;70.58;97386.59;5116711;27;19920;-73
2023/11/13 03:16:58;;;;;;;;;;;;;;;7.16;70.26;97386.41;5090817;27;19923;-72
2023/11/13 03:19:46;;;;;;;;;;;;;;;7.27;70.13;97387.00;5095265;28;19923;-72
2023/11/13 03:22:34;;;;;;;;;;;;;;;7.33;69.88;97385.78;5094658;28;19927;-72
2023/11/13 03:25:22;;;;;;;;;;;;;;;7.23;69.95;97375.97;5114598;27;20190;-71
2023/11/13 03:28:12;;;;;;;;;;;;;;;7.27;70.07;97365.38;5089333;28;19920;-72
2023/11/13 03:31:01;;;;;;;;;;;;;;;7.22;70.20;97374.38;5108694;27;19966;-72
2023/11/13 03:33:49;;;;;;;;;;;;;;;7.29;70.40;97366.66;5103255;28;19924;-72
2023/11/13 03:36:37;;;;;;;;;;;;;;;7.29;70.86;97363.16;5089624;27;19923;-72
2023/11/13 03:39:26;;;;;;;;;;;;;;;7.43;70.76;97363.16;5107593;27;20475;-71
2023/11/13 03:42:14;;;;;;;;;;;;;;;7.41;70.58;97359.97;5117766;27;20065;-73
2023/11/13 03:45:01;;;;;;;;;;;;;;;7.33;70.90;97354.16;5115914;27;19919;-76
2023/11/13 03:47:51;;;;;;;;;;;;;;;7.40;70.94;97334.00;5101911;28;19928;-72
2023/11/13 03:50:39;;;;;;;;;;;;;;;7.34;71.09;97330.63;5090515;28;19920;-72
2023/11/13 03:53:27;;;;;;;;;;;;;;;7.29;70.89;97331.53;5096521;27;19959;-75
2023/11/13 03:56:15;;;;;;;;;;;;;;;7.43;71.15;97328.00;5103457;28;19965;-72
2023/11/13 03:59:03;;;;;;;;;;;;;;;7.41;70.93;97327.53;5112035;27;20092;-73
2023/11/13 04:01:51;;;;;;;;;;;;;;;7.57;70.55;97326.88;5116967;27;19920;-72
2023/11/13 04:04:41;;;;;;;;;;;;;;;7.51;70.60;97330.81;5097234;28;19927;-73
2023/11/13 04:07:30;;;;;;;;;;;;;;;7.38;71.17;97328.13;5102607;28;19932;-74
2023/11/13 04:10:18;;;;;;;;;;;;;;;7.39;71.64;97322.41;5115990;27;19923;-73
2023/11/13 04:13:06;;;;;;;;;;;;;;;7.35;71.69;97322.25;5112335;28;19968;-72
2023/11/13 04:15:57;;;;;;;;;;;;;;;7.45;71.53;97320.38;5095997;28;20686;-72
2023/11/13 04:18:45;;;;;;;;;;;;;;;7.37;71.73;97327.31;5111109;28;20022;-72
2023/11/13 04:21:36;;;;;;;;;;;;;;;7.38;71.82;97326.22;5101872;28;19927;-72
2023/11/13 04:24:24;;;;;;;;;;;;;;;7.27;72.13;97328.34;5117986;28;20014;-72
2023/11/13 04:27:12;;;;;;;;;;;;;;;7.11;72.92;97329.00;5112140;27;19926;-72
2023/11/13 04:30:00;;;;;;;;;;;;;;;6.99;73.09;97334.91;5104331;27;19920;-71
2023/11/13 04:32:49;;;;;;;;;;;;;;;7.15;73.22;97341.59;5102547;27;19924;-72
2023/11/13 04:35:37;;;;;;;;;;;;;;;7.25;72.93;97346.78;5105461;27;19935;-72
2023/11/13 04:38:27;;;;;;;;;;;;;;;7.14;73.25;97345.41;5110453;27;20074;-72
2023/11/13 04:41:16;;;;;;;;;;;;;;;6.71;74.78;97343.03;5103001;27;19926;-72
2023/11/13 04:44:04;;;;;;;;;;;;;;;6.84;74.59;97341.41;5101490;27;19931;-74
2023/11/13 04:46:52;;;;;;;;;;;;;;;6.72;75.21;97349.22;5106649;27;20281;-72
2023/11/13 04:49:41;;;;;;;;;;;;;;;6.88;74.84;97347.03;5106724;27;19927;-72
2023/11/13 04:52:31;;;;;;;;;;;;;;;6.91;74.51;97346.41;5103195;27;19920;-73
2023/11/13 04:55:21;;;;;;;;;;;;;;;7.15;74.02;97346.19;5114640;27;19935;-72
2023/11/13 04:58:09;;;;;;;;;;;;;;;7.05;74.57;97347.19;5099010;27;19927;-73
2023/11/13 05:00:57;;;;;;;;;;;;;;;7.25;73.83;97338.66;5090090;28;19932;-72
2023/11/13 05:03:46;;;;;;;;;;;;;;;7.39;73.31;97341.31;5096586;27;19924;-74
2023/11/13 05:06:35;;;;;;;;;;;;;;;7.44;73.44;97340.41;5092338;28;19920;-73
2023/11/13 05:09:23;;;;;;;;;;;;;;;7.56;72.95;97329.84;5078489;27;19927;-74
2023/11/13 05:12:13;;;;;;;;;;;;;;;7.56;73.16;97322.56;5097521;27;19920;-72
2023/11/13 05:15:03;;;;;;;;;;;;;;;7.64;72.04;97325.66;5102419;27;19947;-74
2023/11/13 05:17:55;;;;;;;;;;;;;;;7.33;73.28;97327.13;5103520;27;19926;-73
2023/11/13 05:20:45;;;;;;;;;;;;;;;7.36;73.69;97325.75;5102939;27;19934;-72
2023/11/13 05:23:34;;;;;;;;;;;;;;;7.60;72.66;97325.44;5121464;27;19982;-72
2023/11/13 05:26:22;;;;;;;;;;;;;;;7.15;74.38;97325.38;5090303;28;19920;-72
2023/11/13 05:29:11;;;;;;;;;;;;;;;7.48;73.34;97327.91;5080238;28;19920;-71
2023/11/13 05:31:59;;;;;;;;;;;;;;;7.53;72.85;97315.06;5104879;27;19932;-73
2023/11/13 05:34:48;;;;;;;;;;;;;;;7.40;73.99;97315.09;5078722;28;19925;-74
2023/11/13 05:37:36;;;;;;;;;;;;;;;7.44;73.89;97321.50;5087888;28;19928;-72
2023/11/13 05:40:27;;;;;;;;;;;;;;;7.59;73.48;97305.72;5077121;28;20277;-73
2023/11/13 05:43:16;;;;;;;;;;;;;;;7.72;72.74;97308.66;5081692;28;19931;-72
2023/11/13 05:46:05;;;;;;;;;;;;;;;7.59;73.45;97313.03;5087435;28;20269;-73
2023/11/13 05:48:53;;;;;;;;;;;;;;;7.65;73.00;97322.63;5082728;28;19921;-76
2023/11/13 05:51:41;;;;;;;;;;;;;;;7.84;72.44;97323.25;5081167;28;19927;-71
2023/11/13 05:54:29;;;;;;;;;;;;;;;7.95;72.40;97314.91;5079800;28;19971;-76
2023/11/13 05:57:17;;;;;;;;;;;;;;;7.86;72.63;97309.41;5080880;28;19927;-74
2023/11/13 06:00:07;;;;;;;;;;;;;;;7.96;72.37;97305.66;5083212;28;19920;-72
2023/11/13 06:03:00;;;;;;;;;;;;;;;7.95;72.56;97309.47;5083633;28;20357;-72
2023/11/13 06:05:48;;;;;;;;;;;;;;;7.98;72.44;97315.06;5080564;28;20033;-72
2023/11/13 06:08:36;;;;;;;;;;;;;;;7.96;72.59;97327.31;5076444;28;19928;-75
2023/11/13 06:11:25;;;;;;;;;;;;;;;8.06;72.04;97316.22;5088116;28;20067;-71
2023/11/13 06:14:15;;;;;;;;;;;;;;;8.01;71.96;97321.78;5081895;28;19932;-71
2023/11/13 06:17:04;;;;;;;;;;;;;;;7.56;74.40;97322.56;5085576;28;19986;-72
2023/11/13 06:19:53;;;;;;;;;;;;;;;7.54;74.62;97316.66;5078562;28;19952;-72
2023/11/13 06:22:41;;;;;;;;;;;;;;;7.44;75.43;97316.88;5076172;28;20366;-72
2023/11/13 06:25:29;;;;;;;;;;;;;;;7.55;74.88;97312.84;5073032;28;19978;-74
2023/11/13 06:28:17;;;;;;;;;;;;;;;7.70;74.47;97319.00;5088341;28;20276;-72
2023/11/13 06:31:05;;;;;;;;;;;;;;;7.92;74.01;97308.19;5085732;28;19939;-71
2023/11/13 06:33:54;;;;;;;;;;;;;;;7.90;74.46;97309.59;5066728;28;19936;-71
2023/11/13 06:36:44;;;;;;;;;;;;;;;7.91;74.41;97322.81;5091763;27;19924;-72
2023/11/13 06:39:33;;;;;;;;;;;;;;;7.13;76.58;97316.75;5096218;27;19963;-73
2023/11/13 06:42:21;;;;;;;;;;;;;;;7.57;76.18;97323.38;5096763;27;20304;-72
2023/11/13 06:45:11;;;;;;;;;;;;;;;7.74;75.14;97339.72;5097439;27;19935;-75
2023/11/13 06:48:00;;;;;;;;;;;;;;;7.90;74.54;97340.16;5109133;27;19927;-73
2023/11/13 06:50:55;;;;;;;;;;;;;;;8.00;74.06;97337.22;5098460;27;19931;-73
2023/11/13 06:53:44;;;;;;;;;;;;;;;8.05;73.88;97339.00;5110569;27;20364;-73
2023/11/13 06:56:32;;;;;;;;;;;;;;;7.96;74.93;97333.50;5095431;28;19927;-73
2023/11/13 06:59:20;;;;;;;;;;;;;;;7.93;75.09;97336.03;5097281;27;19927;-73
2023/11/13 07:02:08;;;;;;;;;;;;;;;8.09;73.93;97337.25;5100739;27;19926;-72
2023/11/13 07:04:56;;;;;;;;;;;;;;;7.63;76.36;97332.97;5103185;27;20009;-73
2023/11/13 07:07:44;;;;;;;;;;;;;;;8.04;74.94;97331.97;5095804;27;20381;-72
2023/11/13 07:10:38;;;;;;;;;;;;;;;8.24;74.14;97331.44;5083234;28;20219;-72
2023/11/13 07:13:27;;;;;;;;;;;;;;;8.31;73.83;97331.00;5100191;27;19920;-73
2023/11/13 07:16:16;;;;;;;;;;;;;;;8.19;74.24;97336.19;5111981;27;19928;-73
2023/11/13 07:19:04;;;;;;;;;;;;;;;8.32;74.25;97328.00;5121661;27;19923;-73
2023/11/13 07:21:55;;;;;;;;;;;;;;;8.42;73.40;97326.19;5109296;27;19923;-72
2023/11/13 07:24:43;;;;;;;;;;;;;;;8.40;74.01;97335.38;5085518;28;20372;-71
2023/11/13 07:27:38;;;;;;;;;;;;;;;8.36;74.12;97329.03;5088866;28;21685;-71
2023/11/13 07:30:27;;;;;;;;;;;;;;;8.26;74.54;97331.16;5086851;28;20020;-71
2023/11/13 07:33:15;;;;;;;;;;;;;;;8.17;74.77;97322.97;5107390;27;19924;-71
2023/11/13 07:36:04;;;;;;;;;;;;;;;8.27;74.79;97325.44;5117272;27;19965;-71
2023/11/13 07:38:52;;;;;;;;;;;;;;;8.38;74.55;97328.69;5096929;28;19920;-71
2023/11/13 07:41:40;;;;;;;;;;;;;;;8.31;74.75;97334.53;5106202;27;19924;-72
2023/11/13 07:44:32;;;;;;;;;;;;;;;8.34;74.70;97341.22;5106049;27;19931;-74
2023/11/13 07:47:26;;;;;;;;;;;;;;;8.44;74.73;97337.47;5108179;27;20295;-72
2023/11/13 07:50:14;;;;;;;;;;;;;;;8.37;75.30;97335.22;5095262;28;20429;-72
2023/11/13 07:53:04;;;;;;;;;;;;;;;8.36;75.58;97337.13;5107372;27;19920;-74
2023/11/13 07:55:54;;;;;;;;;;;;;;;8.38;75.59;97332.19;5109166;27;19927;-72
2023/11/13 07:58:42;;;;;;;;;;;;;;;8.44;75.79;97332.06;5103921;28;19928;-71
2023/11/13 08:01:31;;;;;;;;;;;;;;;8.57;75.39;97333.88;5086528;28;20243;-75
2023/11/13 08:04:19;;;;;;;;;;;;;;;8.65;75.27;97325.00;5095515;28;19920;-72
2023/11/13 08:07:07;;;;;;;;;;;;;;;8.71;75.37;97326.44;5095321;28;20323;-72
2023/11/13 08:10:06;;;;;;;;;;;;;;;8.75;75.30;97321.22;5087221;28;19930;-74
2023/11/13 08:12:56;;;;;;;;;;;;;;;8.76;75.53;97328.22;5092652;28;19920;-71
2023/11/13 08:15:44;;;;;;;;;;;;;;;8.73;75.69;97345.88;5096509;28;20373;-72
2023/11/13 08:18:34;;;;;;;;;;;;;;;8.78;75.92;97351.16;5102699;28;19936;-71
2023/11/13 08:21:22;;;;;;;;;;;;;;;8.79;75.95;97349.25;5104842;27;19924;-72
2023/11/13 08:24:11;;;;;;;;;;;;;;;8.82;76.05;97349.44;5104184;28;20403;-71
2023/11/13 08:26:59;;;;;;;;;;;;;;;8.85;76.04;97356.94;5087617;28;20028;-71
2023/11/13 08:29:48;;;;;;;;;;;;;;;8.83;76.24;97359.16;5094556;28;19924;-71
2023/11/13 08:32:37;;;;;;;;;;;;;;;8.91;76.12;97349.47;5107521;28;19920;-71
2023/11/13 08:35:26;;;;;;;;;;;;;;;8.92;76.50;97359.19;5096921;28;19919;-71
2023/11/13 08:38:14;;;;;;;;;;;;;;;9.01;76.46;97345.69;5102551;28;19927;-71
2023/11/13 08:41:03;;;;;;;;;;;;;;;9.06;76.53;97359.09;5104139;28;19928;-74
2023/11/13 08:43:52;;;;;;;;;;;;;;;8.92;77.91;97345.63;5093325;28;19963;-71
2023/11/13 08:46:41;;;;;;;;;;;;;;;9.11;77.18;97348.09;5098065;28;19920;-71
2023/11/13 08:49:29;;;;;;;;;;;;;;;9.04;77.76;97345.03;5099609;28;19939;-71
2023/11/13 08:52:23;;;;;;;;;;;;;;;8.96;78.35;97341.19;5097115;28;20018;-71
2023/11/13 08:55:12;;;;;;;;;;;;;;;9.14;78.01;97344.75;5098892;28;19948;-71
2023/11/13 08:58:00;;;;;;;;;;;;;;;9.28;77.57;97345.41;5102174;28;19927;-72
2023/11/13 09:00:48;;;;;;;;;;;;;;;9.20;77.88;97346.19;5098914;28;19920;-71
2023/11/13 09:03:37;;;;;;;;;;;;;;;9.17;78.60;97349.53;5101263;28;19958;-71
2023/11/13 09:06:25;;;;;;;;;;;;;;;9.34;78.14;97349.56;5099626;28;20259;-71
2023/11/13 09:09:15;;;;;;;;;;;;;;;9.25;78.65;97353.38;5094393;28;19942;-73
2023/11/13 09:12:04;;;;;;;;;;;;;;;9.40;78.28;97358.34;5100978;27;19927;-73
2023/11/13 09:14:52;;;;;;;;;;;;;;;9.40;78.16;97364.56;5107384;27;19931;-72
2023/11/13 09:17:42;;;;;;;;;;;;;;;9.52;77.86;97365.84;5097773;27;20020;-72
2023/11/13 09:20:30;;;;;;;;;;;;;;;9.62;77.63;97368.25;5104029;27;19924;-71
2023/11/13 09:23:19;;;;;;;;;;;;;;;9.68;77.51;97365.06;5109667;27;19945;-70
2023/11/13 09:26:11;;;;;;;;;;;;;;;9.53;78.65;97370.16;5097639;27;19927;-71
2023/11/13 09:28:59;;;;;;;;;;;;;;;9.29;79.91;97374.13;5102819;28;19975;-74
2023/11/13 09:31:47;;;;;;;;;;;;;;;9.55;79.08;97370.66;5105435;27;19919;-71
2023/11/13 09:34:36;;;;;;;;;;;;;;;9.48;80.03;97365.72;5101663;27;19927;-71
2023/11/13 09:37:24;;;;;;;;;;;;;;;9.54;79.78;97367.16;5102393;27;19932;-72
2023/11/13 09:40:15;;;;;;;;;;;;;;;9.58;80.02;97361.88;5067290;28;20272;-72
2023/11/13 09:43:18;;;;;;;;;;;;;;;9.61;80.55;97366.66;5092797;27;19958;-71
2023/11/13 09:46:08;;;;;;;;;;;;;;;9.59;81.28;97349.94;5094407;27;19920;-74
2023/11/13 09:48:57;;;;;;;;;;;;;;;9.70;81.27;97346.56;5107251;27;19943;-71
2023/11/13 09:51:45;;;;;;;;;;;;;;;9.84;80.62;97340.97;5119002;27;19928;-72
2023/11/13 09:54:33;;;;;;;;;;;;;;;9.97;79.90;97337.31;5097213;27;19935;-71
2023/11/13 09:57:20;;;;;;;;;;;;;;;9.86;80.55;97338.75;5100344;27;19924;-71
2023/11/13 10:00:16;;;;;;;;;;;;;;;10.01;80.76;97333.94;5108100;27;20003;-72
2023/11/13 10:03:06;;;;;;;;;;;;;;;10.14;80.06;97343.81;5094583;27;19961;-72
2023/11/13 10:05:54;;;;;;;;;;;;;;;10.15;80.22;97343.50;5084993;28;20057;-71
2023/11/13 10:08:46;;;;;;;;;;;;;;;10.04;80.93;97338.72;5101065;27;20390;-73
2023/11/13 10:11:35;;;;;;;;;;;;;;;10.06;80.85;97341.91;5091190;28;19966;-72
2023/11/13 10:14:24;;;;;;;;;;;;;;;10.16;80.40;97342.38;5108069;27;20009;-71
2023/11/13 10:17:12;;;;;;;;;;;;;;;10.21;80.43;97327.81;5098534;27;20044;-71
2023/11/13 10:20:04;;;;;;;;;;;;;;;10.24;80.13;97327.22;5102305;27;20361;-72
2023/11/13 10:22:59;;;;;;;;;;;;;;;10.36;79.66;97321.91;5074170;28;20003;-71
2023/11/13 10:25:50;;;;;;;;;;;;;;;10.21;80.62;97309.63;5078806;28;19928;-71
2023/11/13 10:28:40;;;;;;;;;;;;;;;10.33;80.30;97302.75;5092925;28;19935;-72
2023/11/13 10:31:30;;;;;;;;;;;;;;;10.42;79.98;97320.63;5093320;28;20403;-71
2023/11/13 10:34:19;;;;;;;;;;;;;;;10.40;80.14;97313.94;5087020;28;19927;-71
2023/11/13 10:37:10;;;;;;;;;;;;;;;10.12;81.63;97305.31;5087670;28;19939;-70
2023/11/13 10:40:00;;;;;;;;;;;;;;;10.31;80.77;97313.94;5077586;28;20297;-71
2023/11/13 10:42:49;;;;;;;;;;;;;;;10.43;80.23;97307.84;5087007;28;19945;-72
2023/11/13 10:45:40;;;;;;;;;;;;;;;10.48;80.38;97291.38;5076172;28;19924;-71
2023/11/13 10:48:31;;;;;;;;;;;;;;;10.60;80.03;97291.50;5077661;28;19986;-72
2023/11/13 10:51:19;;;;;;;;;;;;;;;10.41;81.06;97282.94;5090725;28;19969;-72
2023/11/13 10:54:08;;;;;;;;;;;;;;;10.44;81.27;97277.66;5078968;28;19977;-73
2023/11/13 10:56:56;;;;;;;;;;;;;;;10.48;80.89;97278.56;5085199;28;20308;-72
2023/11/13 10:59:46;;;;;;;;;;;;;;;10.58;80.60;97263.06;5072424;28;19928;-72
2023/11/13 11:02:36;;;;;;;;;;;;;;;10.65;80.46;97260.59;5062981;28;19925;-72
2023/11/13 11:05:26;;;;;;;;;;;;;;;10.63;80.62;97263.66;5063148;28;19928;-73
2023/11/13 11:08:15;;;;;;;;;;;;;;;10.66;80.72;97254.06;5086471;28;20438;-71
2023/11/13 11:11:05;;;;;;;;;;;;;;;10.66;80.89;97252.16;5082573;28;20359;-72
2023/11/13 11:13:54;;;;;;;;;;;;;;;10.55;80.95;97253.66;5079283;28;19924;-71
2023/11/13 11:16:44;;;;;;;;;;;;;;;10.30;82.64;97247.19;5073662;28;19932;-72
2023/11/13 11:19:35;;;;;;;;;;;;;;;10.39;82.25;97247.97;5093662;27;20327;-72
2023/11/13 11:22:24;;;;;;;;;;;;;;;10.14;84.08;97256.97;5089509;27;20366;-72
2023/11/13 11:25:17;;;;;;;;;;;;;;;10.34;83.21;97250.88;5085669;28;19926;-71
2023/11/13 11:28:07;;;;;;;;;;;;;;;10.42;82.72;97247.28;5095380;27;19920;-71
2023/11/13 11:30:55;;;;;;;;;;;;;;;10.28;83.35;97237.78;5085122;28;20014;-72
2023/11/13 11:33:43;;;;;;;;;;;;;;;10.36;83.25;97226.88;5078410;28;20300;-71
2023/11/13 11:36:32;;;;;;;;;;;;;;;10.34;83.18;97229.16;5087516;28;19920;-70
2023/11/13 11:39:22;;;;;;;;;;;;;;;10.34;83.34;97214.78;5075899;28;20053;-71
2023/11/13 11:42:15;;;;;;;;;;;;;;;10.38;83.24;97224.63;5084712;28;19921;-71
2023/11/13 11:45:07;;;;;;;;;;;;;;;10.39;82.92;97225.44;5077587;28;19928;-70
2023/11/13 11:47:55;;;;;;;;;;;;;;;10.38;82.93;97211.06;5079285;28;19921;-71
2023/11/13 11:50:45;;;;;;;;;;;;;;;10.15;83.66;97204.28;5087204;28;20446;-71
2023/11/13 11:53:37;;;;;;;;;;;;;;;10.14;84.43;97186.41;5076449;28;19920;-70
2023/11/13 11:56:25;;;;;;;;;;;;;;;10.31;83.67;97186.34;5081232;28;20366;-71
2023/11/13 11:59:14;;;;;;;;;;;;;;;10.42;83.18;97179.41;5077623;28;19924;-71
2023/11/13 12:02:03;;;;;;;;;;;;;;;10.48;83.32;97161.81;5078503;28;20066;-72
2023/11/13 12:04:52;;;;;;;;;;;;;;;10.52;83.02;97159.22;5086295;28;19927;-75
2023/11/13 12:07:40;;;;;;;;;;;;;;;10.53;82.92;97155.38;5084027;28;19919;-71
2023/11/13 12:10:29;;;;;;;;;;;;;;;10.56;82.87;97143.09;5087278;28;19932;-71
2023/11/13 12:13:18;;;;;;;;;;;;;;;10.53;82.70;97141.81;5078692;28;20277;-72
2023/11/13 12:16:07;;;;;;;;;;;;;;;10.56;83.16;97143.09;5086251;28;19982;-71
2023/11/13 12:18:59;;;;;;;;;;;;;;;10.50;83.20;97126.19;5083549;28;19927;-71
2023/11/13 12:21:49;;;;;;;;;;;;;;;10.44;83.76;97120.16;5079432;28;19947;-71
2023/11/13 12:24:37;;;;;;;;;;;;;;;10.55;83.39;97119.78;5084975;28;19933;-71
2023/11/13 12:27:25;;;;;;;;;;;;;;;10.58;83.11;97122.59;5086224;28;20003;-71
2023/11/13 12:30:16;;;;;;;;;;;;;;;10.60;83.00;97119.56;5092231;28;19969;-70
2023/11/13 12:33:04;;;;;;;;;;;;;;;10.58;83.19;97106.31;5074544;28;19932;-71
2023/11/13 12:35:55;;;;;;;;;;;;;;;10.55;83.48;97090.69;5076071;28;19924;-70
2023/11/13 12:38:43;;;;;;;;;;;;;;;10.40;83.77;97089.34;5086078;28;19920;-72
2023/11/13 12:41:31;;;;;;;;;;;;;;;10.44;83.66;97078.63;5090885;28;20267;-71
2023/11/13 12:44:19;;;;;;;;;;;;;;;10.49;83.76;97073.81;5094276;28;20028;-71
2023/11/13 12:47:07;;;;;;;;;;;;;;;10.57;83.24;97079.50;5091898;28;19963;-71
2023/11/13 12:49:57;;;;;;;;;;;;;;;10.63;83.02;97075.44;5081649;28;20020;-71
2023/11/13 12:52:48;;;;;;;;;;;;;;;10.55;82.99;97060.81;5079818;28;19977;-71
2023/11/13 12:55:41;;;;;;;;;;;;;;;10.48;83.67;97055.09;5101416;28;19920;-71
2023/11/13 12:58:31;;;;;;;;;;;;;;;10.49;83.37;97043.09;5083963;28;19924;-71
2023/11/13 13:01:21;;;;;;;;;;;;;;;10.55;83.34;97041.00;5085898;28;19924;-72
2023/11/13 13:04:10;;;;;;;;;;;;;;;10.60;83.17;97033.47;5086312;28;19924;-71
2023/11/13 13:06:58;;;;;;;;;;;;;;;10.60;83.49;97025.31;5087154;28;20437;-72
2023/11/13 13:09:51;;;;;;;;;;;;;;;10.55;83.40;97022.00;5087519;28;19920;-71
2023/11/13 13:12:39;;;;;;;;;;;;;;;10.53;83.89;97024.22;5088797;28;20050;-72
2023/11/13 13:15:27;;;;;;;;;;;;;;;10.58;83.72;97018.59;5088276;28;19921;-71
2023/11/13 13:18:16;;;;;;;;;;;;;;;10.62;83.84;97008.66;5082017;28;20400;-72
2023/11/13 13:21:06;;;;;;;;;;;;;;;10.62;83.72;97006.75;5081438;28;20028;-71
2023/11/13 13:23:54;;;;;;;;;;;;;;;10.52;84.56;97006.34;5085481;28;20005;-71
2023/11/13 13:26:44;;;;;;;;;;;;;;;10.43;84.95;97001.78;5092110;28;20281;-71
2023/11/13 13:29:34;;;;;;;;;;;;;;;10.46;84.94;97000.34;5085175;28;19925;-71
2023/11/13 13:32:29;;;;;;;;;;;;;;;10.61;84.98;97005.16;5086785;28;19955;-70
2023/11/13 13:35:19;;;;;;;;;;;;;;;10.70;84.47;96996.91;5073595;28;19964;-72
2023/11/13 13:38:10;;;;;;;;;;;;;;;10.61;84.98;96988.88;5070518;28;19955;-71
2023/11/13 13:40:58;;;;;;;;;;;;;;;10.69;85.05;96984.47;5077978;28;19932;-72
2023/11/13 13:43:49;;;;;;;;;;;;;;;10.70;85.24;96970.53;5077155;28;20276;-73
2023/11/13 13:46:37;;;;;;;;;;;;;;;10.82;84.84;96977.97;5084426;28;19928;-70
2023/11/13 13:49:26;;;;;;;;;;;;;;;10.80;85.37;96966.63;5074740;28;19935;-71
2023/11/13 13:52:15;;;;;;;;;;;;;;;10.80;85.13;96963.91;5086638;28;19927;-72
2023/11/13 13:55:09;;;;;;;;;;;;;;;10.89;85.17;96971.97;5080686;28;19920;-72
2023/11/13 13:58:00;;;;;;;;;;;;;;;10.81;85.59;96960.03;5088902;28;19920;-71
2023/11/13 14:00:52;;;;;;;;;;;;;;;10.91;85.42;96959.63;5088964;28;20435;-72
2023/11/13 14:03:40;;;;;;;;;;;;;;;10.69;86.57;96963.53;5087347;28;20014;-72
2023/11/13 14:06:28;;;;;;;;;;;;;;;10.89;86.05;96961.88;5089580;28;20019;-71
2023/11/13 14:09:16;;;;;;;;;;;;;;;10.86;86.77;96962.56;5097521;28;20017;-72
2023/11/13 14:12:04;;;;;;;;;;;;;;;10.98;86.64;96964.53;5070189;28;19924;-74
2023/11/13 14:14:59;;;;;;;;;;;;;;;10.90;86.84;96959.97;5086039;28;19920;-72
2023/11/13 14:17:53;;;;;;;;;;;;;;;10.83;87.66;96946.16;5086851;28;20002;-71
2023/11/13 14:20:42;;;;;;;;;;;;;;;10.73;88.68;96944.66;5077235;28;20227;-71
2023/11/13 14:23:31;;;;;;;;;;;;;;;11.01;87.70;96952.97;5078294;28;19920;-71
2023/11/13 14:26:20;;;;;;;;;;;;;;;11.09;87.31;96949.38;5081685;28;19931;-71
2023/11/13 14:29:08;;;;;;;;;;;;;;;11.14;87.15;96942.91;5078858;28;20289;-71
2023/11/13 14:31:56;;;;;;;;;;;;;;;11.19;86.93;96942.69;5083487;28;19923;-71
2023/11/13 14:34:45;;;;;;;;;;;;;;;11.02;88.15;96944.50;5073969;28;19932;-71
2023/11/13 14:37:34;;;;;;;;;;;;;;;11.08;87.95;96936.09;5085934;28;19920;-71
2023/11/13 14:40:23;;;;;;;;;;;;;;;11.07;89.01;96929.06;5083734;28;19919;-71
2023/11/13 14:43:12;;;;;;;;;;;;;;;11.16;88.10;96932.50;5094642;27;20058;-71
2023/11/13 14:46:02;;;;;;;;;;;;;;;11.10;88.77;96922.97;5083672;28;19935;-71
2023/11/13 14:48:50;;;;;;;;;;;;;;;10.99;90.11;96923.41;5084350;28;19931;-72